sensor_id;sensor_type;location;lat;lon;timestamp;pressure;altitude;pressure_sealevel;temperature;humidity
18678;BME280;9469;51.114;13.914;2022-07-23T00:04:45;98841.47;;;20.70;97.94
18678;BME280;9469;51.114;13.914;2022-07-23T00:09:50;98849.34;;;20.56;98.19
18678;BME280;9469;51.114;13.914;2022-07-23T00:14:55;98846.28;;;21.07;94.38
18678;BME280;9469;51.114;13.914;2022-07-23T00:20:04;98845.44;;;20.54;98.06
18678;BME280;9469;51.114;13.914;2022-07-23T00:25:09;98832.34;;;20.33;98.57
18678;BME280;9469;51.114;13.914;2022-07-23T00:30:32;98836.81;;;20.22;99.67
18678;BME280;9469;51.114;13.914;2022-07-23T00:35:41;98827.72;;;20.11;100.00
18678;BME280;9469;51.114;13.914;2022-07-23T00:40:46;98825.53;;;20.20;100.00
18678;BME280;9469;51.114;13.914;2022-07-23T00:45:51;98826.06;;;20.48;98.32
18678;BME280;9469;51.114;13.914;2022-07-23T00:50:59;98817.81;;;20.19;99.84
18678;BME280;9469;51.114;13.914;2022-07-23T00:56:04;98829.84;;;20.02;99.62
18678;BME280;9469;51.114;13.914;2022-07-23T01:01:11;98821.50;;;19.88;100.00
18678;BME280;9469;51.114;13.914;2022-07-23T01:06:18;98829.28;;;19.70;100.00
18678;BME280;9469;51.114;13.914;2022-07-23T01:11:26;98822.97;;;19.63;100.00
18678;BME280;9469;51.114;13.914;2022-07-23T01:16:33;98818.69;;;20.23;99.12
18678;BME280;9469;51.114;13.914;2022-07-23T01:21:44;98814.41;;;19.80;100.00
18678;BME280;9469;51.114;13.914;2022-07-23T01:26:52;98794.84;;;19.64;100.00
18678;BME280;9469;51.114;13.914;2022-07-23T01:31:57;98776.69;;;19.42;100.00
18678;BME280;9469;51.114;13.914;2022-07-23T01:37:02;98775.91;;;19.60;100.00
18678;BME280;9469;51.114;13.914;2022-07-23T01:42:10;98762.81;;;19.62;100.00
18678;BME280;9469;51.114;13.914;2022-07-23T01:47:15;98749.50;;;19.73;100.00
18678;BME280;9469;51.114;13.914;2022-07-23T01:52:25;98753.19;;;19.84;100.00
18678;BME280;9469;51.114;13.914;2022-07-23T01:57:32;98744.94;;;19.77;100.00
18678;BME280;9469;51.114;13.914;2022-07-23T02:02:38;98747.72;;;19.58;100.00
18678;BME280;9469;51.114;13.914;2022-07-23T02:07:43;98737.91;;;19.30;100.00
18678;BME280;9469;51.114;13.914;2022-07-23T02:12:51;98747.22;;;19.33;100.00
18678;BME280;9469;51.114;13.914;2022-07-23T02:17:56;98739.81;;;19.30;100.00
18678;BME280;9469;51.114;13.914;2022-07-23T02:23:01;98731.41;;;19.12;100.00
18678;BME280;9469;51.114;13.914;2022-07-23T02:28:09;98731.03;;;19.14;100.00
18678;BME280;9469;51.114;13.914;2022-07-23T02:33:16;98719.47;;;19.13;100.00
18678;BME280;9469;51.114;13.914;2022-07-23T02:38:21;98730.97;;;19.10;100.00
18678;BME280;9469;51.114;13.914;2022-07-23T02:43:28;98720.19;;;19.10;100.00
18678;BME280;9469;51.114;13.914;2022-07-23T02:48:33;98721.03;;;19.14;100.00
18678;BME280;9469;51.114;13.914;2022-07-23T02:53:38;98713.03;;;18.99;100.00
18678;BME280;9469;51.114;13.914;2022-07-23T02:58:47;98711.53;;;19.01;100.00
18678;BME280;9469;51.114;13.914;2022-07-23T03:03:52;98704.84;;;19.14;100.00
18678;BME280;9469;51.114;13.914;2022-07-23T03:08:57;98710.53;;;19.28;100.00
18678;BME280;9469;51.114;13.914;2022-07-23T03:14:05;98710.31;;;19.18;100.00
18678;BME280;9469;51.114;13.914;2022-07-23T03:19:11;98714.50;;;19.15;100.00
18678;BME280;9469;51.114;13.914;2022-07-23T03:24:16;98706.84;;;18.98;100.00
18678;BME280;9469;51.114;13.914;2022-07-23T03:29:24;98696.34;;;18.74;100.00
18678;BME280;9469;51.114;13.914;2022-07-23T03:34:29;98691.59;;;18.87;100.00
18678;BME280;9469;51.114;13.914;2022-07-23T03:39:34;98681.47;;;18.99;100.00
18678;BME280;9469;51.114;13.914;2022-07-23T03:44:42;98689.41;;;18.92;100.00
18678;BME280;9469;51.114;13.914;2022-07-23T03:49:48;98673.13;;;18.89;100.00
18678;BME280;9469;51.114;13.914;2022-07-23T03:54:53;98663.22;;;18.74;100.00
18678;BME280;9469;51.114;13.914;2022-07-23T04:00:03;98658.47;;;18.86;100.00
18678;BME280;9469;51.114;13.914;2022-07-23T04:05:14;98671.47;;;19.22;100.00
18678;BME280;9469;51.114;13.914;2022-07-23T04:10:24;98692.66;;;18.82;100.00
18678;BME280;9469;51.114;13.914;2022-07-23T04:15:31;98673.81;;;19.43;100.00
18678;BME280;9469;51.114;13.914;2022-07-23T04:20:37;98678.94;;;19.29;100.00
18678;BME280;9469;51.114;13.914;2022-07-23T04:25:43;98670.28;;;19.62;100.00
18678;BME280;9469;51.114;13.914;2022-07-23T04:30:51;98663.78;;;19.63;100.00
18678;BME280;9469;51.114;13.914;2022-07-23T04:35:57;98673.28;;;19.57;100.00
18678;BME280;9469;51.114;13.914;2022-07-23T04:41:02;98683.06;;;19.65;100.00
18678;BME280;9469;51.114;13.914;2022-07-23T04:46:10;98685.69;;;19.61;100.00
18678;BME280;9469;51.114;13.914;2022-07-23T04:51:21;98684.81;;;19.76;100.00
18678;BME280;9469;51.114;13.914;2022-07-23T04:56:26;98694.94;;;20.06;100.00
18678;BME280;9469;51.114;13.914;2022-07-23T05:01:35;98683.75;;;19.81;100.00
18678;BME280;9469;51.114;13.914;2022-07-23T05:06:40;98680.19;;;19.77;100.00
18678;BME280;9469;51.114;13.914;2022-07-23T05:11:45;98674.38;;;19.75;100.00
18678;BME280;9469;51.114;13.914;2022-07-23T05:16:53;98674.03;;;20.02;100.00
18678;BME280;9469;51.114;13.914;2022-07-23T05:22:00;98662.47;;;20.02;100.00
18678;BME280;9469;51.114;13.914;2022-07-23T05:27:06;98674.81;;;20.26;100.00
18678;BME280;9469;51.114;13.914;2022-07-23T05:32:15;98682.91;;;20.26;100.00
18678;BME280;9469;51.114;13.914;2022-07-23T05:37:29;98690.13;;;20.44;100.00
18678;BME280;9469;51.114;13.914;2022-07-23T05:42:34;98695.38;;;20.60;100.00
18678;BME280;9469;51.114;13.914;2022-07-23T05:47:45;98711.31;;;20.68;100.00
18678;BME280;9469;51.114;13.914;2022-07-23T05:52:59;98720.84;;;20.33;100.00
18678;BME280;9469;51.114;13.914;2022-07-23T05:58:25;98734.53;;;20.47;100.00
18678;BME280;9469;51.114;13.914;2022-07-23T06:03:33;98759.53;;;20.40;100.00
18678;BME280;9469;51.114;13.914;2022-07-23T06:08:39;98764.09;;;20.36;100.00
18678;BME280;9469;51.114;13.914;2022-07-23T06:13:44;98784.16;;;20.35;100.00
18678;BME280;9469;51.114;13.914;2022-07-23T06:18:51;98807.38;;;19.94;100.00
18678;BME280;9469;51.114;13.914;2022-07-23T06:23:57;98804.91;;;20.09;100.00
18678;BME280;9469;51.114;13.914;2022-07-23T06:29:02;98804.47;;;19.84;100.00
18678;BME280;9469;51.114;13.914;2022-07-23T06:34:09;98811.19;;;19.93;100.00
18678;BME280;9469;51.114;13.914;2022-07-23T06:39:15;98823.88;;;19.70;100.00
18678;BME280;9469;51.114;13.914;2022-07-23T06:44:22;98812.25;;;20.08;100.00
18678;BME280;9469;51.114;13.914;2022-07-23T06:49:30;98809.56;;;19.89;100.00
18678;BME280;9469;51.114;13.914;2022-07-23T06:54:35;98814.72;;;19.97;100.00
18678;BME280;9469;51.114;13.914;2022-07-23T06:59:40;98817.97;;;19.84;100.00
18678;BME280;9469;51.114;13.914;2022-07-23T07:04:51;98826.16;;;20.10;100.00
18678;BME280;9469;51.114;13.914;2022-07-23T07:10:07;98806.41;;;20.06;100.00
18678;BME280;9469;51.114;13.914;2022-07-23T07:15:16;98811.00;;;20.73;100.00
18678;BME280;9469;51.114;13.914;2022-07-23T07:20:24;98777.56;;;20.10;100.00
18678;BME280;9469;51.114;13.914;2022-07-23T07:25:29;98787.41;;;20.44;100.00
18678;BME280;9469;51.114;13.914;2022-07-23T07:30:34;98765.09;;;20.77;100.00
18678;BME280;9469;51.114;13.914;2022-07-23T07:35:42;98774.78;;;20.78;99.15
18678;BME280;9469;51.114;13.914;2022-07-23T07:40:47;98792.50;;;22.01;94.26
18678;BME280;9469;51.114;13.914;2022-07-23T07:45:52;98797.34;;;22.26;91.80
18678;BME280;9469;51.114;13.914;2022-07-23T07:51:00;98803.22;;;22.35;90.24
18678;BME280;9469;51.114;13.914;2022-07-23T07:56:05;98813.50;;;22.11;91.77
18678;BME280;9469;51.114;13.914;2022-07-23T08:01:11;98815.22;;;22.81;89.23
18678;BME280;9469;51.114;13.914;2022-07-23T08:06:18;98816.13;;;23.99;84.75
18678;BME280;9469;51.114;13.914;2022-07-23T08:11:24;98811.91;;;24.48;81.21
18678;BME280;9469;51.114;13.914;2022-07-23T08:16:29;98811.06;;;22.98;85.72
18678;BME280;9469;51.114;13.914;2022-07-23T08:21:57;98787.13;;;23.17;86.02
18678;BME280;9469;51.114;13.914;2022-07-23T08:27:02;98777.66;;;23.76;84.52
18678;BME280;9469;51.114;13.914;2022-07-23T08:32:07;98778.00;;;23.61;84.22
18678;BME280;9469;51.114;13.914;2022-07-23T08:37:35;98775.41;;;24.10;82.59
18678;BME280;9469;51.114;13.914;2022-07-23T08:42:40;98789.28;;;25.04;77.47
18678;BME280;9469;51.114;13.914;2022-07-23T08:47:45;98783.50;;;24.73;79.19
18678;BME280;9469;51.114;13.914;2022-07-23T08:52:59;98786.75;;;23.19;83.87
18678;BME280;9469;51.114;13.914;2022-07-23T08:58:05;98788.94;;;23.92;82.13
18678;BME280;9469;51.114;13.914;2022-07-23T09:03:15;98785.50;;;24.13;81.30
18678;BME280;9469;51.114;13.914;2022-07-23T09:08:25;98796.75;;;24.40;80.16
18678;BME280;9469;51.114;13.914;2022-07-23T09:13:35;98797.53;;;24.33;78.73
18678;BME280;9469;51.114;13.914;2022-07-23T09:18:43;98800.16;;;25.14;75.25
18678;BME280;9469;51.114;13.914;2022-07-23T09:23:57;98819.63;;;24.70;76.73
18678;BME280;9469;51.114;13.914;2022-07-23T09:29:06;98817.69;;;24.67;77.25
18678;BME280;9469;51.114;13.914;2022-07-23T09:34:13;98812.53;;;26.09;72.12
18678;BME280;9469;51.114;13.914;2022-07-23T09:39:26;98806.97;;;26.26;72.60
18678;BME280;9469;51.114;13.914;2022-07-23T09:44:40;98814.41;;;25.53;73.10
18678;BME280;9469;51.114;13.914;2022-07-23T09:49:58;98807.25;;;25.84;72.99
18678;BME280;9469;51.114;13.914;2022-07-23T09:55:08;98816.38;;;25.53;73.29
18678;BME280;9469;51.114;13.914;2022-07-23T10:00:16;98835.94;;;25.09;74.70
18678;BME280;9469;51.114;13.914;2022-07-23T10:05:22;98834.69;;;25.45;74.27
18678;BME280;9469;51.114;13.914;2022-07-23T10:10:51;98831.81;;;26.36;72.07
18678;BME280;9469;51.114;13.914;2022-07-23T10:16:18;98823.44;;;26.60;70.48
18678;BME280;9469;51.114;13.914;2022-07-23T10:21:38;98838.34;;;25.94;71.46
18678;BME280;9469;51.114;13.914;2022-07-23T10:26:53;98842.69;;;26.90;69.64
18678;BME280;9469;51.114;13.914;2022-07-23T10:32:14;98833.69;;;26.93;68.62
18678;BME280;9469;51.114;13.914;2022-07-23T10:37:28;98834.16;;;27.22;67.51
18678;BME280;9469;51.114;13.914;2022-07-23T10:42:37;98853.06;;;26.58;68.60
18678;BME280;9469;51.114;13.914;2022-07-23T10:47:44;98855.94;;;26.41;69.07
18678;BME280;9469;51.114;13.914;2022-07-23T10:53:08;98853.25;;;26.88;68.06
18678;BME280;9469;51.114;13.914;2022-07-23T10:58:22;98855.31;;;26.22;69.80
18678;BME280;9469;51.114;13.914;2022-07-23T11:03:29;98859.31;;;27.03;67.77
18678;BME280;9469;51.114;13.914;2022-07-23T11:08:35;98864.16;;;26.88;68.15
18678;BME280;9469;51.114;13.914;2022-07-23T11:13:49;98852.84;;;27.24;66.18
18678;BME280;9469;51.114;13.914;2022-07-23T11:19:03;98867.28;;;26.36;69.58
18678;BME280;9469;51.114;13.914;2022-07-23T11:24:10;98854.28;;;26.57;69.32
18678;BME280;9469;51.114;13.914;2022-07-23T11:35:01;98875.63;;;26.66;70.41
18678;BME280;9469;51.114;13.914;2022-07-23T11:40:10;98877.41;;;25.62;72.89
18678;BME280;9469;51.114;13.914;2022-07-23T11:45:15;98884.44;;;25.60;73.94
18678;BME280;9469;51.114;13.914;2022-07-23T11:50:23;98886.50;;;26.14;72.42
18678;BME280;9469;51.114;13.914;2022-07-23T11:55:29;98885.13;;;25.78;73.38
18678;BME280;9469;51.114;13.914;2022-07-23T12:00:40;98875.72;;;25.93;73.20
18678;BME280;9469;51.114;13.914;2022-07-23T12:05:48;98870.91;;;25.28;75.26
18678;BME280;9469;51.114;13.914;2022-07-23T12:10:56;98875.06;;;25.61;74.70
18678;BME280;9469;51.114;13.914;2022-07-23T12:16:01;98889.06;;;25.63;75.60
18678;BME280;9469;51.114;13.914;2022-07-23T12:21:09;98886.88;;;24.59;78.75
18678;BME280;9469;51.114;13.914;2022-07-23T12:26:14;98883.34;;;24.31;81.42
18678;BME280;9469;51.114;13.914;2022-07-23T12:31:25;98892.31;;;24.52;80.34
18678;BME280;9469;51.114;13.914;2022-07-23T12:36:39;98896.53;;;24.25;80.94
18678;BME280;9469;51.114;13.914;2022-07-23T12:41:50;98896.56;;;24.74;79.79
18678;BME280;9469;51.114;13.914;2022-07-23T12:46:55;98896.19;;;24.97;79.17
18678;BME280;9469;51.114;13.914;2022-07-23T12:52:15;98904.72;;;24.32;80.65
18678;BME280;9469;51.114;13.914;2022-07-23T12:57:45;98908.59;;;24.45;80.10
18678;BME280;9469;51.114;13.914;2022-07-23T13:02:50;98902.44;;;24.98;77.95
18678;BME280;9469;51.114;13.914;2022-07-23T13:07:57;98899.28;;;25.24;77.12
18678;BME280;9469;51.114;13.914;2022-07-23T13:13:08;98897.72;;;24.45;79.14
18678;BME280;9469;51.114;13.914;2022-07-23T13:18:17;98891.66;;;25.98;75.03
18678;BME280;9469;51.114;13.914;2022-07-23T13:23:26;98907.75;;;25.61;75.53
18678;BME280;9469;51.114;13.914;2022-07-23T13:28:32;98910.50;;;25.40;76.96
18678;BME280;9469;51.114;13.914;2022-07-23T13:33:37;98919.13;;;24.64;79.60
18678;BME280;9469;51.114;13.914;2022-07-23T13:38:47;98901.44;;;25.89;75.54
18678;BME280;9469;51.114;13.914;2022-07-23T13:43:52;98915.25;;;24.97;78.01
18678;BME280;9469;51.114;13.914;2022-07-23T13:48:58;98899.25;;;25.38;77.03
18678;BME280;9469;51.114;13.914;2022-07-23T13:54:11;98905.13;;;26.30;73.74
18678;BME280;9469;51.114;13.914;2022-07-23T13:59:16;98919.53;;;24.98;78.38
18678;BME280;9469;51.114;13.914;2022-07-23T14:04:22;98904.75;;;25.24;77.40
18678;BME280;9469;51.114;13.914;2022-07-23T14:09:30;98907.81;;;24.34;79.64
18678;BME280;9469;51.114;13.914;2022-07-23T14:14:36;98906.69;;;24.70;78.06
18678;BME280;9469;51.114;13.914;2022-07-23T14:19:41;98905.16;;;24.90;77.34
18678;BME280;9469;51.114;13.914;2022-07-23T14:24:49;98919.50;;;24.63;77.93
18678;BME280;9469;51.114;13.914;2022-07-23T14:29:56;98917.56;;;25.13;75.69
18678;BME280;9469;51.114;13.914;2022-07-23T14:35:03;98922.59;;;25.39;74.69
18678;BME280;9469;51.114;13.914;2022-07-23T14:40:14;98921.88;;;25.10;74.85
18678;BME280;9469;51.114;13.914;2022-07-23T14:45:20;98920.56;;;25.78;73.12
18678;BME280;9469;51.114;13.914;2022-07-23T14:50:25;98910.72;;;25.98;72.49
18678;BME280;9469;51.114;13.914;2022-07-23T14:55:33;98909.00;;;26.29;71.14
18678;BME280;9469;51.114;13.914;2022-07-23T15:00:38;98903.31;;;26.09;70.63
18678;BME280;9469;51.114;13.914;2022-07-23T15:05:43;98915.19;;;25.39;71.87
18678;BME280;9469;51.114;13.914;2022-07-23T15:10:51;98916.41;;;25.21;73.25
18678;BME280;9469;51.114;13.914;2022-07-23T15:15:55;98917.13;;;25.53;72.14
18678;BME280;9469;51.114;13.914;2022-07-23T15:21:04;98916.34;;;25.56;72.20
18678;BME280;9469;51.114;13.914;2022-07-23T15:26:13;98909.22;;;25.83;70.99
18678;BME280;9469;51.114;13.914;2022-07-23T15:31:20;98913.97;;;25.65;71.37
18678;BME280;9469;51.114;13.914;2022-07-23T15:36:29;98906.94;;;25.78;71.16
18678;BME280;9469;51.114;13.914;2022-07-23T15:41:38;98909.72;;;25.57;71.40
18678;BME280;9469;51.114;13.914;2022-07-23T15:46:44;98915.16;;;25.53;72.59
18678;BME280;9469;51.114;13.914;2022-07-23T15:51:49;98915.19;;;25.36;72.87
18678;BME280;9469;51.114;13.914;2022-07-23T15:56:59;98911.31;;;25.33;73.13
18678;BME280;9469;51.114;13.914;2022-07-23T16:02:08;98904.69;;;25.52;72.53
18678;BME280;9469;51.114;13.914;2022-07-23T16:07:13;98905.50;;;25.21;73.65
18678;BME280;9469;51.114;13.914;2022-07-23T16:12:21;98907.47;;;25.24;73.54
18678;BME280;9469;51.114;13.914;2022-07-23T16:17:28;98908.63;;;24.70;76.15
18678;BME280;9469;51.114;13.914;2022-07-23T16:22:34;98905.94;;;24.80;75.61
18678;BME280;9469;51.114;13.914;2022-07-23T16:27:42;98897.59;;;25.72;72.47
18678;BME280;9469;51.114;13.914;2022-07-23T16:32:47;98908.66;;;24.98;74.66
18678;BME280;9469;51.114;13.914;2022-07-23T16:37:52;98906.63;;;25.51;72.92
18678;BME280;9469;51.114;13.914;2022-07-23T16:43:01;98909.34;;;25.55;72.52
18678;BME280;9469;51.114;13.914;2022-07-23T16:48:06;98903.78;;;25.83;71.50
18678;BME280;9469;51.114;13.914;2022-07-23T16:53:11;98913.72;;;24.82;74.89
18678;BME280;9469;51.114;13.914;2022-07-23T16:58:19;98914.81;;;25.27;73.62
18678;BME280;9469;51.114;13.914;2022-07-23T17:03:24;98923.41;;;24.90;74.93
18678;BME280;9469;51.114;13.914;2022-07-23T17:08:30;98916.41;;;24.68;75.37
18678;BME280;9469;51.114;13.914;2022-07-23T17:13:38;98919.91;;;25.28;73.72
18678;BME280;9469;51.114;13.914;2022-07-23T17:18:43;98924.94;;;24.45;76.78
18678;BME280;9469;51.114;13.914;2022-07-23T17:23:48;98920.66;;;25.22;74.23
18678;BME280;9469;51.114;13.914;2022-07-23T17:28:56;98918.00;;;24.93;74.25
18678;BME280;9469;51.114;13.914;2022-07-23T17:34:01;98921.81;;;24.43;75.20
18678;BME280;9469;51.114;13.914;2022-07-23T17:39:06;98925.34;;;24.72;74.23
18678;BME280;9469;51.114;13.914;2022-07-23T17:44:15;98924.59;;;25.00;72.70
18678;BME280;9469;51.114;13.914;2022-07-23T17:49:20;98941.22;;;24.28;74.16
18678;BME280;9469;51.114;13.914;2022-07-23T17:54:25;98935.75;;;24.20;72.81
18678;BME280;9469;51.114;13.914;2022-07-23T17:59:34;98946.63;;;24.17;72.09
18678;BME280;9469;51.114;13.914;2022-07-23T18:04:40;98941.91;;;24.07;72.96
18678;BME280;9469;51.114;13.914;2022-07-23T18:09:46;98949.66;;;24.01;73.70
18678;BME280;9469;51.114;13.914;2022-07-23T18:14:53;98949.56;;;23.84;74.71
18678;BME280;9469;51.114;13.914;2022-07-23T18:20:05;98954.13;;;23.62;76.18
18678;BME280;9469;51.114;13.914;2022-07-23T18:25:12;98958.41;;;23.67;75.34
18678;BME280;9469;51.114;13.914;2022-07-23T18:30:19;98961.84;;;23.53;76.08
18678;BME280;9469;51.114;13.914;2022-07-23T18:35:28;98974.41;;;23.82;75.07
18678;BME280;9469;51.114;13.914;2022-07-23T18:40:33;98968.75;;;23.40;76.29
18678;BME280;9469;51.114;13.914;2022-07-23T18:45:43;98969.53;;;23.40;76.98
18678;BME280;9469;51.114;13.914;2022-07-23T18:50:48;98984.69;;;23.48;77.11
18678;BME280;9469;51.114;13.914;2022-07-23T18:55:53;98994.31;;;23.35;77.81
18678;BME280;9469;51.114;13.914;2022-07-23T19:01:01;98993.31;;;23.14;78.45
18678;BME280;9469;51.114;13.914;2022-07-23T19:06:07;99005.03;;;23.21;79.05
18678;BME280;9469;51.114;13.914;2022-07-23T19:11:13;99007.72;;;22.77;81.58
18678;BME280;9469;51.114;13.914;2022-07-23T19:16:20;99010.00;;;22.72;82.54
18678;BME280;9469;51.114;13.914;2022-07-23T19:21:27;99012.25;;;22.63;83.40
18678;BME280;9469;51.114;13.914;2022-07-23T19:26:32;99019.22;;;22.64;82.74
18678;BME280;9469;51.114;13.914;2022-07-23T19:31:40;99018.09;;;22.68;82.53
18678;BME280;9469;51.114;13.914;2022-07-23T19:36:45;99023.66;;;22.82;81.82
18678;BME280;9469;51.114;13.914;2022-07-23T19:41:50;99025.56;;;22.75;81.73
18678;BME280;9469;51.114;13.914;2022-07-23T19:46:58;99027.03;;;22.69;82.20
18678;BME280;9469;51.114;13.914;2022-07-23T19:52:03;99027.47;;;22.41;84.05
18678;BME280;9469;51.114;13.914;2022-07-23T19:57:10;99031.72;;;22.39;84.09
18678;BME280;9469;51.114;13.914;2022-07-23T20:02:19;99038.25;;;22.04;85.53
18678;BME280;9469;51.114;13.914;2022-07-23T20:07:24;99039.34;;;21.74;87.49
18678;BME280;9469;51.114;13.914;2022-07-23T20:12:30;99044.75;;;21.74;86.63
18678;BME280;9469;51.114;13.914;2022-07-23T20:17:38;99053.25;;;21.98;85.66
18678;BME280;9469;51.114;13.914;2022-07-23T20:22:43;99054.38;;;21.71;87.03
18678;BME280;9469;51.114;13.914;2022-07-23T20:27:48;99058.44;;;21.32;89.18
18678;BME280;9469;51.114;13.914;2022-07-23T20:32:55;99061.72;;;21.22;89.68
18678;BME280;9469;51.114;13.914;2022-07-23T20:38:00;99069.44;;;20.78;92.17
18678;BME280;9469;51.114;13.914;2022-07-23T20:43:05;99072.56;;;20.61;94.18
18678;BME280;9469;51.114;13.914;2022-07-23T20:48:13;99074.94;;;20.43;94.42
18678;BME280;9469;51.114;13.914;2022-07-23T20:53:27;99087.44;;;20.32;95.29
18678;BME280;9469;51.114;13.914;2022-07-23T20:58:32;99083.47;;;20.26;94.63
18678;BME280;9469;51.114;13.914;2022-07-23T21:03:40;99089.72;;;20.30;94.92
18678;BME280;9469;51.114;13.914;2022-07-23T21:08:45;99090.16;;;20.51;94.03
18678;BME280;9469;51.114;13.914;2022-07-23T21:13:50;99100.81;;;20.83;91.33
18678;BME280;9469;51.114;13.914;2022-07-23T21:18:57;99111.56;;;20.60;92.40
18678;BME280;9469;51.114;13.914;2022-07-23T21:24:04;99111.88;;;19.85;96.96
18678;BME280;9469;51.114;13.914;2022-07-23T21:29:09;99114.50;;;19.51;99.59
18678;BME280;9469;51.114;13.914;2022-07-23T21:34:17;99115.91;;;19.60;98.42
18678;BME280;9469;51.114;13.914;2022-07-23T21:39:22;99113.09;;;19.41;98.44
18678;BME280;9469;51.114;13.914;2022-07-23T21:44:27;99117.53;;;19.33;97.76
18678;BME280;9469;51.114;13.914;2022-07-23T21:49:35;99119.59;;;19.24;98.19
18678;BME280;9469;51.114;13.914;2022-07-23T21:54:40;99124.28;;;19.12;99.23
18678;BME280;9469;51.114;13.914;2022-07-23T21:59:45;99131.56;;;19.11;99.44
18678;BME280;9469;51.114;13.914;2022-07-23T22:04:54;99132.97;;;19.05;100.00
18678;BME280;9469;51.114;13.914;2022-07-23T22:09:59;99133.84;;;19.09;99.99
18678;BME280;9469;51.114;13.914;2022-07-23T22:15:06;99139.44;;;18.89;100.00
18678;BME280;9469;51.114;13.914;2022-07-23T22:20:14;99146.81;;;18.76;100.00
18678;BME280;9469;51.114;13.914;2022-07-23T22:25:21;99155.19;;;18.47;100.00
18678;BME280;9469;51.114;13.914;2022-07-23T22:30:27;99150.47;;;18.44;100.00
18678;BME280;9469;51.114;13.914;2022-07-23T22:35:35;99153.31;;;18.47;100.00
18678;BME280;9469;51.114;13.914;2022-07-23T22:40:40;99145.66;;;18.25;100.00
18678;BME280;9469;51.114;13.914;2022-07-23T22:45:45;99156.00;;;18.23;100.00
18678;BME280;9469;51.114;13.914;2022-07-23T22:50:53;99153.69;;;17.98;100.00
18678;BME280;9469;51.114;13.914;2022-07-23T22:55:59;99154.66;;;18.29;100.00
18678;BME280;9469;51.114;13.914;2022-07-23T23:01:04;99160.41;;;18.16;100.00
18678;BME280;9469;51.114;13.914;2022-07-23T23:06:12;99160.63;;;17.86;100.00
18678;BME280;9469;51.114;13.914;2022-07-23T23:11:17;99162.31;;;17.79;100.00
18678;BME280;9469;51.114;13.914;2022-07-23T23:16:22;99163.53;;;17.69;100.00
18678;BME280;9469;51.114;13.914;2022-07-23T23:21:30;99166.09;;;17.54;100.00
18678;BME280;9469;51.114;13.914;2022-07-23T23:26:35;99170.03;;;17.56;100.00
18678;BME280;9469;51.114;13.914;2022-07-23T23:31:40;99166.19;;;17.57;100.00
18678;BME280;9469;51.114;13.914;2022-07-23T23:36:48;99171.56;;;17.45;100.00
18678;BME280;9469;51.114;13.914;2022-07-23T23:41:53;99174.66;;;17.35;100.00
18678;BME280;9469;51.114;13.914;2022-07-23T23:46:58;99188.66;;;17.29;100.00
18678;BME280;9469;51.114;13.914;2022-07-23T23:52:06;99178.63;;;17.50;100.00
18678;BME280;9469;51.114;13.914;2022-07-23T23:57:11;99187.47;;;17.50;100.00
